Kimberly Turecamo — WDC6838 — position and weather

sailwx.info

Track history (hours):
 
Tides and Currents Weather Stations Pressure Air Temp Water Temp Dewpoint Dewpoint Depression Visibility Wind Speed Wind Dir Waves Ship Positions

Kimberly Turecamo

Owner: Moran Towing Corporation, New Canaan, CT. More information available from US FCC via Universal Licensing System and Coast Guard Vessel Documentation Center.

Last reported at 2015-Apr-21 22:34 UTC. Time now 2015-Apr-21 23:22 UTC.
Position N 39°54' W 075°12'.

Length 33 m; draft 5 m.

Type: Tug. MMSI: 367061980.

Date/timePositionNaut miles runAvg speedWind from/ knotsBaromVisibWave heightAir tempDewpointWater temp
2015-Apr-21 22:34N 39°54' W 075°12'0 0.0
2015-Apr-21 21:33N 39°54' W 075°12'1 1.4
2015-Apr-21 20:34N 39°52' W 075°12'1 1.2
2015-Apr-21 19:32N 39°51' W 075°14'0 0.0
2015-Apr-21 18:34N 39°51' W 075°14'3 2.9
2015-Apr-21 17:34N 39°53' W 075°11'0 0.0
2015-Apr-21 16:34N 39°53' W 075°11'0 0.0
2015-Apr-21 15:34N 39°53' W 075°11'3 2.9
2015-Apr-21 14:34N 39°51' W 075°14'0 0.0
2015-Apr-21 13:34N 39°51' W 075°14'0 0.0
2015-Apr-21 12:34N 39°51' W 075°14'0 0.0
2015-Apr-21 11:34N 39°51' W 075°14'0 0.0
2015-Apr-21 10:34N 39°51' W 075°14'0 0.1
2015-Apr-21 09:34N 39°51' W 075°14'0 0.0
2015-Apr-21 08:34N 39°51' W 075°14'0 0.0
2015-Apr-21 07:34N 39°51' W 075°14'0 0.0
2015-Apr-21 06:33N 39°51' W 075°14'0 0.0
2015-Apr-21 05:34N 39°51' W 075°14'0 0.1
2015-Apr-21 04:34N 39°51' W 075°14'0 0.0
2015-Apr-21 03:33N 39°51' W 075°14'0 0.1
2015-Apr-21 02:34N 39°51' W 075°14'0 0.0
2015-Apr-21 01:34N 39°51' W 075°14'0 0.0
2015-Apr-21 00:33N 39°51' W 075°14'0 0.0
2015-Apr-20 23:33N 39°51' W 075°14'0 0.0
2015-Apr-20 22:34N 39°51' W 075°14'0 0.0
2015-Apr-20 21:34N 39°51' W 075°14'0 0.1
2015-Apr-20 20:34N 39°52' W 075°14'0 0.1
2015-Apr-20 19:34N 39°51' W 075°14'0 0.0
2015-Apr-20 18:34N 39°51' W 075°14'0 0.0
2015-Apr-20 17:34N 39°51' W 075°14'0 0.0
2015-Apr-20 16:33N 39°51' W 075°14'0 0.0
2015-Apr-20 15:33N 39°51' W 075°14'0 0.1
2015-Apr-20 14:34N 39°51' W 075°14'0 0.0
2015-Apr-20 13:34N 39°51' W 075°14'0 0.0
2015-Apr-20 12:34N 39°51' W 075°14'0 0.0
2015-Apr-20 11:33N 39°51' W 075°14'0 0.0
2015-Apr-20 10:34N 39°51' W 075°14'0 0.0
2015-Apr-20 09:34N 39°51' W 075°14'0 0.0
2015-Apr-20 08:33N 39°51' W 075°14'0 0.1
2015-Apr-20 07:34N 39°51' W 075°14'0 0.1
2015-Apr-20 06:33N 39°51' W 075°14'0 0.0
2015-Apr-20 05:33N 39°51' W 075°14'0 0.0
2015-Apr-20 04:33N 39°51' W 075°14'0 0.0
2015-Apr-20 03:33N 39°51' W 075°14'0 0.1
2015-Apr-20 02:33N 39°51' W 075°14'0 0.0
2015-Apr-20 01:34N 39°51' W 075°14'0 0.0
2015-Apr-20 00:33N 39°51' W 075°14'0 0.0
2015-Apr-19 23:34N 39°51' W 075°14'0 0.0
2015-Apr-19 22:33N 39°51' W 075°14'0 0.0
2015-Apr-19 21:34N 39°51' W 075°14'0 0.0
2015-Apr-19 20:34N 39°51' W 075°14'0 0.1
2015-Apr-19 19:34N 39°51' W 075°14'0 0.1
2015-Apr-19 18:34N 39°51' W 075°14'2 1.9
2015-Apr-19 17:34N 39°53' W 075°12'2 1.9
2015-Apr-19 16:34N 39°51' W 075°14'0 0.0
2015-Apr-19 15:33N 39°51' W 075°14'0 0.1
2015-Apr-19 14:34N 39°51' W 075°14'0 0.1
2015-Apr-19 13:34N 39°51' W 075°14'6 6.2
2015-Apr-19 12:34N 39°56' W 075°08'4 4.3
2015-Apr-19 11:34N 39°59' W 075°04'5 4.7
2015-Apr-19 10:34N 39°55' W 075°08'3 3.0
2015-Apr-19 09:34N 39°53' W 075°11'0 0.0
2015-Apr-19 08:33N 39°53' W 075°11'0 0.0
2015-Apr-19 07:33N 39°53' W 075°11'0 0.0
2015-Apr-19 06:34N 39°53' W 075°11'0 0.0
2015-Apr-19 05:33N 39°53' W 075°11'0 0.0
2015-Apr-19 04:33N 39°53' W 075°11'0 0.0
2015-Apr-19 03:34N 39°53' W 075°11'0 0.0
2015-Apr-19 02:34N 39°53' W 075°11'0 0.0
2015-Apr-19 01:33N 39°53' W 075°11'0 0.0
2015-Apr-19 00:33N 39°53' W 075°11'0 0.0
2015-Apr-18 23:34N 39°53' W 075°11'0 0.0
2015-Apr-18 22:34N 39°53' W 075°11'0 0.0
2015-Apr-18 21:34N 39°53' W 075°11'0 0.0
2015-Apr-18 20:34N 39°53' W 075°11'0 0.0
2015-Apr-18 19:34N 39°53' W 075°11'1 1.2
2015-Apr-18 18:34N 39°53' W 075°09'7 7.0
2015-Apr-18 17:34N 39°59' W 075°04'2 2.5
2015-Apr-18 16:34N 39°58' W 075°07'2 1.8
2015-Apr-18 15:34N 39°56' W 075°08'0 0.0
2015-Apr-18 14:33N 39°56' W 075°08'0 0.2
2015-Apr-18 13:34N 39°56' W 075°08'0 0.0
2015-Apr-18 12:34N 39°56' W 075°08'0 0.0
2015-Apr-18 11:34N 39°56' W 075°08'0 0.0
2015-Apr-18 10:34N 39°56' W 075°08'0 0.0
2015-Apr-18 09:34N 39°56' W 075°08'0 0.0
2015-Apr-18 08:34N 39°56' W 075°08'0 0.0
2015-Apr-18 07:33N 39°56' W 075°08'0 0.1
2015-Apr-18 06:33N 39°56' W 075°08'0 0.0
2015-Apr-18 05:34N 39°56' W 075°08'0 0.0
2015-Apr-18 04:33N 39°56' W 075°08'0 0.0
2015-Apr-18 03:33N 39°56' W 075°08'0 0.0
2015-Apr-18 02:34N 39°56' W 075°08'0 0.1
2015-Apr-18 01:34N 39°56' W 075°08'0 0.1
2015-Apr-18 00:34N 39°56' W 075°08'0 0.0
2015-Apr-17 23:33N 39°56' W 075°08'0 0.0
2015-Apr-17 22:34N 39°56' W 075°08'0 0.0
2015-Apr-17 21:34N 39°56' W 075°08'0 0.0
2015-Apr-17 20:34N 39°56' W 075°08'0 0.0
2015-Apr-17 19:34N 39°56' W 075°08'0 0.1
2015-Apr-17 18:34N 39°56' W 075°08'0 0.1
2015-Apr-17 17:34N 39°56' W 075°08'0 0.0
2015-Apr-17 16:34N 39°56' W 075°08'0 0.0
2015-Apr-17 15:34N 39°56' W 075°08'0 0.0
2015-Apr-17 14:34N 39°56' W 075°08'0 0.0
2015-Apr-17 13:34N 39°56' W 075°08'0 0.2
2015-Apr-17 12:33N 39°56' W 075°08'0 0.0
2015-Apr-17 11:34N 39°56' W 075°08'0 0.0
2015-Apr-17 10:34N 39°56' W 075°08'0 0.0
2015-Apr-17 09:34N 39°56' W 075°08'0 0.0
2015-Apr-17 08:34N 39°56' W 075°08'0 0.0
2015-Apr-17 07:33N 39°56' W 075°08'0 0.0
2015-Apr-17 06:34N 39°56' W 075°08'0 0.2
2015-Apr-17 05:34N 39°56' W 075°08'0 0.0
2015-Apr-17 04:34N 39°56' W 075°08'0 0.0
2015-Apr-17 03:34N 39°56' W 075°08'0 0.0
2015-Apr-17 02:33N 39°56' W 075°08'0 0.0
2015-Apr-17 01:33N 39°56' W 075°08'0 0.0
2015-Apr-17 00:34N 39°56' W 075°08'0 0.2
2015-Apr-16 23:34N 39°56' W 075°08'0 0.0
2015-Apr-16 22:34N 39°56' W 075°08'0 0.0
2015-Apr-16 21:33N 39°56' W 075°08'0 0.0
2015-Apr-16 20:33N 39°56' W 075°08'0 0.0
2015-Apr-16 19:33N 39°56' W 075°08'0 0.0
2015-Apr-16 18:34N 39°56' W 075°08'0 0.2
2015-Apr-16 17:34N 39°56' W 075°08'0 0.0
2015-Apr-16 16:34N 39°56' W 075°08'0 0.0
2015-Apr-16 15:34N 39°56' W 075°08'0 0.0
2015-Apr-16 14:34N 39°56' W 075°08'0 0.0
2015-Apr-16 13:33N 39°56' W 075°08'0 0.0
2015-Apr-16 12:34N 39°56' W 075°08'0 0.2
2015-Apr-16 11:33N 39°56' W 075°08'0 0.0
2015-Apr-16 10:34N 39°56' W 075°08'0 0.0
2015-Apr-16 09:34N 39°56' W 075°08'4 3.7
2015-Apr-16 08:33N 39°53' W 075°11'6 5.9
2015-Apr-16 07:34N 39°51' W 075°18'6 5.5
2015-Apr-16 06:33N 39°49' W 075°24'6 6.1
2015-Apr-16 05:34N 39°44' W 075°30'6 6.4
2015-Apr-16 04:34N 39°39' W 075°34'6 6.3
2015-Apr-16 03:34N 39°32' W 075°33'7 6.9
2015-Apr-16 02:34N 39°25' W 075°31'8 7.9
2015-Apr-16 01:34N 39°20' W 075°25'8 7.9
2015-Apr-16 00:34N 39°14' W 075°18'9 8.7
2015-Apr-15 23:33N 39°06' W 075°12'9 8.6
2015-Apr-15 22:33N 38°58' W 075°07'6 6.3
2015-Apr-15 21:33N 38°53' W 075°04'7 6.8
2015-Apr-15 20:33N 38°48' W 074°57'52 6.9
2015-Apr-15 13:04N 39°26' W 074°11'4 6.9
2015-Apr-15 12:34N 39°29' W 074°09'7 6.8
2015-Apr-15 11:34N 39°36' W 074°05'7 6.8
2015-Apr-15 10:33N 39°41' W 074°01'7 6.8
2015-Apr-15 09:33N 39°48' W 073°58'7 6.9
2015-Apr-15 08:32N 39°55' W 073°57'7 6.9
2015-Apr-15 07:33N 40°02' W 073°57'7 6.7
2015-Apr-15 06:32N 40°08' W 073°55'6 6.5
2015-Apr-15 05:33N 40°15' W 073°55'7 6.9
2015-Apr-15 04:34N 40°21' W 073°55'7 7.0
2015-Apr-15 03:33N 40°29' W 073°55'8 7.5
2015-Apr-15 02:33N 40°34' W 074°02'5 5.4
2015-Apr-15 01:34N 40°39' W 074°03'1 1.0
2015-Apr-15 00:34N 40°40' W 074°02'0 0.2
2015-Apr-14 23:34N 40°40' W 074°02'0 0.0
2015-Apr-14 22:33N 40°40' W 074°02'0 0.0
2015-Apr-14 21:34N 40°40' W 074°02'0 0.0
2015-Apr-14 20:33N 40°40' W 074°02'2 2.1
2015-Apr-14 19:34N 40°38' W 074°03'0 0.1
2015-Apr-14 18:34N 40°38' W 074°03'0 0.1
2015-Apr-14 17:34N 40°38' W 074°03'0 0.0
2015-Apr-14 16:34N 40°38' W 074°03'0 0.0
2015-Apr-14 15:34N 40°38' W 074°03'0 0.0
2015-Apr-14 14:34N 40°38' W 074°03'0 0.0
2015-Apr-14 13:34N 40°38' W 074°03'0 0.0
2015-Apr-14 12:34N 40°38' W 074°03'0 0.0
2015-Apr-14 11:33N 40°38' W 074°03'0 0.2
2015-Apr-14 10:34N 40°38' W 074°03'0 0.1
2015-Apr-14 09:33N 40°38' W 074°03'0 0.0
2015-Apr-14 08:34N 40°38' W 074°03'0 0.0
2015-Apr-14 07:34N 40°38' W 074°03'0 0.0
2015-Apr-14 06:34N 40°38' W 074°03'0 0.0
2015-Apr-14 05:33N 40°38' W 074°03'0 0.1
2015-Apr-14 04:33N 40°38' W 074°03'0 0.1
2015-Apr-14 03:34N 40°38' W 074°03'3 2.8
2015-Apr-14 02:31N 40°39' W 074°07'1 1.0
2015-Apr-14 01:29N 40°38' W 074°08'0 0.0
2015-Apr-14 00:34N 40°38' W 074°08'0 0.0
2015-Apr-13 23:19N 40°38' W 074°08'0 0.0
2015-Apr-13 21:14N 40°38' W 074°08'0 0.0
2015-Apr-13 20:17N 40°38' W 074°08'0 0.0
2015-Apr-13 19:33N 40°38' W 074°08'0 0.0
2015-Apr-13 18:33N 40°38' W 074°08'0 0.0
2015-Apr-13 17:24N 40°38' W 074°08'0 0.0
2015-Apr-13 16:32N 40°38' W 074°08'0 0.0
2015-Apr-13 15:33N 40°38' W 074°08'0 0.0
2015-Apr-13 14:33N 40°38' W 074°08'0 0.0
2015-Apr-13 13:34N 40°38' W 074°08'0 0.0
2015-Apr-13 12:33N 40°38' W 074°08'0 0.0
2015-Apr-13 09:23N 40°38' W 074°08'0 0.0
2015-Apr-13 08:31N 40°38' W 074°08'0 0.0
2015-Apr-13 07:34N 40°38' W 074°08'0 0.0
2015-Apr-13 06:32N 40°38' W 074°08'0 0.0
2015-Apr-13 05:32N 40°38' W 074°08'0 0.0
2015-Apr-13 04:33N 40°38' W 074°08'0 0.0
2015-Apr-13 03:31N 40°38' W 074°08'0 0.0
2015-Apr-13 02:27N 40°38' W 074°08'0 0.0
2015-Apr-13 01:34N 40°38' W 074°08'0 0.0
2015-Apr-13 00:32N 40°38' W 074°08'0 0.0
2015-Apr-12 23:33N 40°38' W 074°08'0 0.0
2015-Apr-12 22:33N 40°38' W 074°08'0 0.0
2015-Apr-12 21:33N 40°38' W 074°08'0 0.0
2015-Apr-12 20:33N 40°38' W 074°08'1 0.9
2015-Apr-12 19:22N 40°39' W 074°07'1 1.7
2015-Apr-12 18:33N 40°39' W 074°05'1 1.5
2015-Apr-12 17:33N 40°39' W 074°03'0 0.1
2015-Apr-12 16:33N 40°39' W 074°03'0 0.0
2015-Apr-12 15:33N 40°39' W 074°03'0 0.0
2015-Apr-12 14:33N 40°39' W 074°03'0 0.0
2015-Apr-12 13:34N 40°39' W 074°03'3 2.5
2015-Apr-12 12:33N 40°39' W 074°06'0 0.1
2015-Apr-12 11:31N 40°39' W 074°06'1 1.4
2015-Apr-12 10:33N 40°38' W 074°08'0 0.0
2015-Apr-12 09:34N 40°38' W 074°08'0 0.0
2015-Apr-12 08:34N 40°38' W 074°08'0 0.0
2015-Apr-12 07:34N 40°38' W 074°08'0 0.0
2015-Apr-12 06:34N 40°38' W 074°08'0 0.0
2015-Apr-12 05:34N 40°38' W 074°08'0 0.0
2015-Apr-12 04:33N 40°38' W 074°08'0 0.0
2015-Apr-12 03:33N 40°38' W 074°08'0 0.0
2015-Apr-12 02:33N 40°38' W 074°08'0 0.0
2015-Apr-12 01:34N 40°38' W 074°08'0 0.0
2015-Apr-12 00:32N 40°38' W 074°08'0 0.0
2015-Apr-11 23:33N 40°38' W 074°08'0 0.0
2015-Apr-11 22:34N 40°38' W 074°08'  
Track history (hours):
 
Tides and Currents Weather Stations Pressure Air Temp Water Temp Dewpoint Dewpoint Depression Visibility Wind Speed Wind Dir Waves Ship Positions

Kimberly Turecamo

Owner: Moran Towing Corporation, New Canaan, CT. More information available from US FCC via Universal Licensing System and Coast Guard Vessel Documentation Center.

Last reported at 2015-Apr-21 22:34 UTC. Time now 2015-Apr-21 23:22 UTC.
Position N 39°54' W 075°12'.

Length 33 m; draft 5 m.

Type: Tug. MMSI: 367061980.

Date/timePositionNaut miles runAvg speedWind from/ knotsBaromVisibWave heightAir tempDewpointWater temp
2015-Apr-21 22:34N 39°54' W 075°12'0 0.0
2015-Apr-21 21:33N 39°54' W 075°12'1 1.4
2015-Apr-21 20:34N 39°52' W 075°12'1 1.2
2015-Apr-21 19:32N 39°51' W 075°14'0 0.0
2015-Apr-21 18:34N 39°51' W 075°14'3 2.9
2015-Apr-21 17:34N 39°53' W 075°11'0 0.0
2015-Apr-21 16:34N 39°53' W 075°11'0 0.0
2015-Apr-21 15:34N 39°53' W 075°11'3 2.9
2015-Apr-21 14:34N 39°51' W 075°14'0 0.0
2015-Apr-21 13:34N 39°51' W 075°14'0 0.0
2015-Apr-21 12:34N 39°51' W 075°14'0 0.0
2015-Apr-21 11:34N 39°51' W 075°14'0 0.0
2015-Apr-21 10:34N 39°51' W 075°14'0 0.1
2015-Apr-21 09:34N 39°51' W 075°14'0 0.0
2015-Apr-21 08:34N 39°51' W 075°14'0 0.0
2015-Apr-21 07:34N 39°51' W 075°14'0 0.0
2015-Apr-21 06:33N 39°51' W 075°14'0 0.0
2015-Apr-21 05:34N 39°51' W 075°14'0 0.1
2015-Apr-21 04:34N 39°51' W 075°14'0 0.0
2015-Apr-21 03:33N 39°51' W 075°14'0 0.1
2015-Apr-21 02:34N 39°51' W 075°14'0 0.0
2015-Apr-21 01:34N 39°51' W 075°14'0 0.0
2015-Apr-21 00:33N 39°51' W 075°14'0 0.0
2015-Apr-20 23:33N 39°51' W 075°14'0 0.0
2015-Apr-20 22:34N 39°51' W 075°14'0 0.0
2015-Apr-20 21:34N 39°51' W 075°14'0 0.1
2015-Apr-20 20:34N 39°52' W 075°14'0 0.1
2015-Apr-20 19:34N 39°51' W 075°14'0 0.0
2015-Apr-20 18:34N 39°51' W 075°14'0 0.0
2015-Apr-20 17:34N 39°51' W 075°14'0 0.0
2015-Apr-20 16:33N 39°51' W 075°14'0 0.0
2015-Apr-20 15:33N 39°51' W 075°14'0 0.1
2015-Apr-20 14:34N 39°51' W 075°14'0 0.0
2015-Apr-20 13:34N 39°51' W 075°14'0 0.0
2015-Apr-20 12:34N 39°51' W 075°14'0 0.0
2015-Apr-20 11:33N 39°51' W 075°14'0 0.0
2015-Apr-20 10:34N 39°51' W 075°14'0 0.0
2015-Apr-20 09:34N 39°51' W 075°14'0 0.0
2015-Apr-20 08:33N 39°51' W 075°14'0 0.1
2015-Apr-20 07:34N 39°51' W 075°14'0 0.1
2015-Apr-20 06:33N 39°51' W 075°14'0 0.0
2015-Apr-20 05:33N 39°51' W 075°14'0 0.0
2015-Apr-20 04:33N 39°51' W 075°14'0 0.0
2015-Apr-20 03:33N 39°51' W 075°14'0 0.1
2015-Apr-20 02:33N 39°51' W 075°14'0 0.0
2015-Apr-20 01:34N 39°51' W 075°14'0 0.0
2015-Apr-20 00:33N 39°51' W 075°14'0 0.0
2015-Apr-19 23:34N 39°51' W 075°14'0 0.0
2015-Apr-19 22:33N 39°51' W 075°14'0 0.0
2015-Apr-19 21:34N 39°51' W 075°14'0 0.0
2015-Apr-19 20:34N 39°51' W 075°14'0 0.1
2015-Apr-19 19:34N 39°51' W 075°14'0 0.1
2015-Apr-19 18:34N 39°51' W 075°14'2 1.9
2015-Apr-19 17:34N 39°53' W 075°12'2 1.9
2015-Apr-19 16:34N 39°51' W 075°14'0 0.0
2015-Apr-19 15:33N 39°51' W 075°14'0 0.1
2015-Apr-19 14:34N 39°51' W 075°14'0 0.1
2015-Apr-19 13:34N 39°51' W 075°14'6 6.2
2015-Apr-19 12:34N 39°56' W 075°08'4 4.3
2015-Apr-19 11:34N 39°59' W 075°04'5 4.7
2015-Apr-19 10:34N 39°55' W 075°08'3 3.0
2015-Apr-19 09:34N 39°53' W 075°11'0 0.0
2015-Apr-19 08:33N 39°53' W 075°11'0 0.0
2015-Apr-19 07:33N 39°53' W 075°11'0 0.0
2015-Apr-19 06:34N 39°53' W 075°11'0 0.0
2015-Apr-19 05:33N 39°53' W 075°11'0 0.0
2015-Apr-19 04:33N 39°53' W 075°11'0 0.0
2015-Apr-19 03:34N 39°53' W 075°11'0 0.0
2015-Apr-19 02:34N 39°53' W 075°11'0 0.0
2015-Apr-19 01:33N 39°53' W 075°11'0 0.0
2015-Apr-19 00:33N 39°53' W 075°11'0 0.0
2015-Apr-18 23:34N 39°53' W 075°11'0 0.0
2015-Apr-18 22:34N 39°53' W 075°11'0 0.0
2015-Apr-18 21:34N 39°53' W 075°11'0 0.0
2015-Apr-18 20:34N 39°53' W 075°11'0 0.0
2015-Apr-18 19:34N 39°53' W 075°11'1 1.2
2015-Apr-18 18:34N 39°53' W 075°09'7 7.0
2015-Apr-18 17:34N 39°59' W 075°04'2 2.5
2015-Apr-18 16:34N 39°58' W 075°07'2 1.8
2015-Apr-18 15:34N 39°56' W 075°08'0 0.0
2015-Apr-18 14:33N 39°56' W 075°08'0 0.2
2015-Apr-18 13:34N 39°56' W 075°08'0 0.0
2015-Apr-18 12:34N 39°56' W 075°08'0 0.0
2015-Apr-18 11:34N 39°56' W 075°08'0 0.0
2015-Apr-18 10:34N 39°56' W 075°08'0 0.0
2015-Apr-18 09:34N 39°56' W 075°08'0 0.0
2015-Apr-18 08:34N 39°56' W 075°08'0 0.0
2015-Apr-18 07:33N 39°56' W 075°08'0 0.1
2015-Apr-18 06:33N 39°56' W 075°08'0 0.0
2015-Apr-18 05:34N 39°56' W 075°08'0 0.0
2015-Apr-18 04:33N 39°56' W 075°08'0 0.0
2015-Apr-18 03:33N 39°56' W 075°08'0 0.0
2015-Apr-18 02:34N 39°56' W 075°08'0 0.1
2015-Apr-18 01:34N 39°56' W 075°08'0 0.1
2015-Apr-18 00:34N 39°56' W 075°08'0 0.0
2015-Apr-17 23:33N 39°56' W 075°08'0 0.0
2015-Apr-17 22:34N 39°56' W 075°08'0 0.0
2015-Apr-17 21:34N 39°56' W 075°08'0 0.0
2015-Apr-17 20:34N 39°56' W 075°08'0 0.0
2015-Apr-17 19:34N 39°56' W 075°08'0 0.1
2015-Apr-17 18:34N 39°56' W 075°08'0 0.1
2015-Apr-17 17:34N 39°56' W 075°08'0 0.0
2015-Apr-17 16:34N 39°56' W 075°08'0 0.0
2015-Apr-17 15:34N 39°56' W 075°08'0 0.0
2015-Apr-17 14:34N 39°56' W 075°08'0 0.0
2015-Apr-17 13:34N 39°56' W 075°08'0 0.2
2015-Apr-17 12:33N 39°56' W 075°08'0 0.0
2015-Apr-17 11:34N 39°56' W 075°08'0 0.0
2015-Apr-17 10:34N 39°56' W 075°08'0 0.0
2015-Apr-17 09:34N 39°56' W 075°08'0 0.0
2015-Apr-17 08:34N 39°56' W 075°08'0 0.0
2015-Apr-17 07:33N 39°56' W 075°08'0 0.0
2015-Apr-17 06:34N 39°56' W 075°08'0 0.2
2015-Apr-17 05:34N 39°56' W 075°08'0 0.0
2015-Apr-17 04:34N 39°56' W 075°08'0 0.0
2015-Apr-17 03:34N 39°56' W 075°08'0 0.0
2015-Apr-17 02:33N 39°56' W 075°08'0 0.0
2015-Apr-17 01:33N 39°56' W 075°08'0 0.0
2015-Apr-17 00:34N 39°56' W 075°08'0 0.2
2015-Apr-16 23:34N 39°56' W 075°08'0 0.0
2015-Apr-16 22:34N 39°56' W 075°08'0 0.0
2015-Apr-16 21:33N 39°56' W 075°08'0 0.0
2015-Apr-16 20:33N 39°56' W 075°08'0 0.0
2015-Apr-16 19:33N 39°56' W 075°08'0 0.0
2015-Apr-16 18:34N 39°56' W 075°08'0 0.2
2015-Apr-16 17:34N 39°56' W 075°08'0 0.0
2015-Apr-16 16:34N 39°56' W 075°08'0 0.0
2015-Apr-16 15:34N 39°56' W 075°08'0 0.0
2015-Apr-16 14:34N 39°56' W 075°08'0 0.0
2015-Apr-16 13:33N 39°56' W 075°08'0 0.0
2015-Apr-16 12:34N 39°56' W 075°08'0 0.2
2015-Apr-16 11:33N 39°56' W 075°08'0 0.0
2015-Apr-16 10:34N 39°56' W 075°08'0 0.0
2015-Apr-16 09:34N 39°56' W 075°08'4 3.7
2015-Apr-16 08:33N 39°53' W 075°11'6 5.9
2015-Apr-16 07:34N 39°51' W 075°18'6 5.5
2015-Apr-16 06:33N 39°49' W 075°24'6 6.1
2015-Apr-16 05:34N 39°44' W 075°30'6 6.4
2015-Apr-16 04:34N 39°39' W 075°34'6 6.3
2015-Apr-16 03:34N 39°32' W 075°33'7 6.9
2015-Apr-16 02:34N 39°25' W 075°31'8 7.9
2015-Apr-16 01:34N 39°20' W 075°25'8 7.9
2015-Apr-16 00:34N 39°14' W 075°18'9 8.7
2015-Apr-15 23:33N 39°06' W 075°12'9 8.6
2015-Apr-15 22:33N 38°58' W 075°07'6 6.3
2015-Apr-15 21:33N 38°53' W 075°04'7 6.8
2015-Apr-15 20:33N 38°48' W 074°57'52 6.9
2015-Apr-15 13:04N 39°26' W 074°11'4 6.9
2015-Apr-15 12:34N 39°29' W 074°09'7 6.8
2015-Apr-15 11:34N 39°36' W 074°05'7 6.8
2015-Apr-15 10:33N 39°41' W 074°01'7 6.8
2015-Apr-15 09:33N 39°48' W 073°58'7 6.9
2015-Apr-15 08:32N 39°55' W 073°57'7 6.9
2015-Apr-15 07:33N 40°02' W 073°57'7 6.7
2015-Apr-15 06:32N 40°08' W 073°55'6 6.5
2015-Apr-15 05:33N 40°15' W 073°55'7 6.9
2015-Apr-15 04:34N 40°21' W 073°55'7 7.0
2015-Apr-15 03:33N 40°29' W 073°55'8 7.5
2015-Apr-15 02:33N 40°34' W 074°02'5 5.4
2015-Apr-15 01:34N 40°39' W 074°03'1 1.0
2015-Apr-15 00:34N 40°40' W 074°02'0 0.2
2015-Apr-14 23:34N 40°40' W 074°02'0 0.0
2015-Apr-14 22:33N 40°40' W 074°02'0 0.0
2015-Apr-14 21:34N 40°40' W 074°02'0 0.0
2015-Apr-14 20:33N 40°40' W 074°02'2 2.1
2015-Apr-14 19:34N 40°38' W 074°03'0 0.1
2015-Apr-14 18:34N 40°38' W 074°03'0 0.1
2015-Apr-14 17:34N 40°38' W 074°03'0 0.0
2015-Apr-14 16:34N 40°38' W 074°03'0 0.0
2015-Apr-14 15:34N 40°38' W 074°03'0 0.0
2015-Apr-14 14:34N 40°38' W 074°03'0 0.0
2015-Apr-14 13:34N 40°38' W 074°03'0 0.0
2015-Apr-14 12:34N 40°38' W 074°03'0 0.0
2015-Apr-14 11:33N 40°38' W 074°03'0 0.2
2015-Apr-14 10:34N 40°38' W 074°03'0 0.1
2015-Apr-14 09:33N 40°38' W 074°03'0 0.0
2015-Apr-14 08:34N 40°38' W 074°03'0 0.0
2015-Apr-14 07:34N 40°38' W 074°03'0 0.0
2015-Apr-14 06:34N 40°38' W 074°03'0 0.0
2015-Apr-14 05:33N 40°38' W 074°03'0 0.1
2015-Apr-14 04:33N 40°38' W 074°03'0 0.1
2015-Apr-14 03:34N 40°38' W 074°03'3 2.8
2015-Apr-14 02:31N 40°39' W 074°07'1 1.0
2015-Apr-14 01:29N 40°38' W 074°08'0 0.0
2015-Apr-14 00:34N 40°38' W 074°08'0 0.0
2015-Apr-13 23:19N 40°38' W 074°08'0 0.0
2015-Apr-13 21:14N 40°38' W 074°08'0 0.0
2015-Apr-13 20:17N 40°38' W 074°08'0 0.0
2015-Apr-13 19:33N 40°38' W 074°08'0 0.0
2015-Apr-13 18:33N 40°38' W 074°08'0 0.0
2015-Apr-13 17:24N 40°38' W 074°08'0 0.0
2015-Apr-13 16:32N 40°38' W 074°08'0 0.0
2015-Apr-13 15:33N 40°38' W 074°08'0 0.0
2015-Apr-13 14:33N 40°38' W 074°08'0 0.0
2015-Apr-13 13:34N 40°38' W 074°08'0 0.0
2015-Apr-13 12:33N 40°38' W 074°08'0 0.0
2015-Apr-13 09:23N 40°38' W 074°08'0 0.0
2015-Apr-13 08:31N 40°38' W 074°08'0 0.0
2015-Apr-13 07:34N 40°38' W 074°08'0 0.0
2015-Apr-13 06:32N 40°38' W 074°08'0 0.0
2015-Apr-13 05:32N 40°38' W 074°08'0 0.0
2015-Apr-13 04:33N 40°38' W 074°08'0 0.0
2015-Apr-13 03:31N 40°38' W 074°08'0 0.0
2015-Apr-13 02:27N 40°38' W 074°08'0 0.0
2015-Apr-13 01:34N 40°38' W 074°08'0 0.0
2015-Apr-13 00:32N 40°38' W 074°08'0 0.0
2015-Apr-12 23:33N 40°38' W 074°08'0 0.0
2015-Apr-12 22:33N 40°38' W 074°08'0 0.0
2015-Apr-12 21:33N 40°38' W 074°08'0 0.0
2015-Apr-12 20:33N 40°38' W 074°08'1 0.9
2015-Apr-12 19:22N 40°39' W 074°07'1 1.7
2015-Apr-12 18:33N 40°39' W 074°05'1 1.5
2015-Apr-12 17:33N 40°39' W 074°03'0 0.1
2015-Apr-12 16:33N 40°39' W 074°03'0 0.0
2015-Apr-12 15:33N 40°39' W 074°03'0 0.0
2015-Apr-12 14:33N 40°39' W 074°03'0 0.0
2015-Apr-12 13:34N 40°39' W 074°03'3 2.5
2015-Apr-12 12:33N 40°39' W 074°06'0 0.1
2015-Apr-12 11:31N 40°39' W 074°06'1 1.4
2015-Apr-12 10:33N 40°38' W 074°08'0 0.0
2015-Apr-12 09:34N 40°38' W 074°08'0 0.0
2015-Apr-12 08:34N 40°38' W 074°08'0 0.0
2015-Apr-12 07:34N 40°38' W 074°08'0 0.0
2015-Apr-12 06:34N 40°38' W 074°08'0 0.0
2015-Apr-12 05:34N 40°38' W 074°08'0 0.0
2015-Apr-12 04:33N 40°38' W 074°08'0 0.0
2015-Apr-12 03:33N 40°38' W 074°08'0 0.0
2015-Apr-12 02:33N 40°38' W 074°08'0 0.0
2015-Apr-12 01:34N 40°38' W 074°08'0 0.0
2015-Apr-12 00:32N 40°38' W 074°08'0 0.0
2015-Apr-11 23:33N 40°38' W 074°08'0 0.0
2015-Apr-11 22:34N 40°38' W 074°08'  

Dump ship's entire track history